Time;durP1;ratioP1;P1;durP2;ratioP2;P2;SDS_P1;SDS_P2;PMS_P1;PMS_P2;Temp;Humidity;BMP_temperature;BMP_pressure;BME280_temperature;BME280_humidity;BME280_pressure;Samples;Min_cycle;Max_cycle;Signal;HPM_P1;HPM_P2
2021/12/17 00:05:05;;;;;;;7.72;3.65;;;8.00;99.90;;;;;;5079331;28;20048;-84
2021/12/17 00:07:35;;;;;;;7.28;4.40;;;8.10;99.90;;;;;;5083741;28;20105;-84
2021/12/17 00:10:03;;;;;;;8.77;4.18;;;8.10;99.90;;;;;;5062737;28;20040;-84
2021/12/17 00:12:30;;;;;;;4.63;3.03;;;8.00;99.90;;;;;;5083801;28;20040;-84
2021/12/17 00:14:57;;;;;;;5.60;3.08;;;8.00;99.90;;;;;;5090977;28;20032;-84
2021/12/17 00:17:29;;;;;;;9.85;4.07;;;8.00;99.90;;;;;;5067809;28;20048;-84
2021/12/17 00:52:54;;;;;;;3.60;1.92;;;7.80;99.90;;;;;;5056627;28;20078;-84
2021/12/17 00:55:20;;;;;;;1.67;1.27;;;7.80;99.90;;;;;;5073976;28;20040;-84
2021/12/17 00:57:46;;;;;;;2.08;1.55;;;7.80;99.90;;;;;;5069665;28;20130;-84
2021/12/17 01:00:21;;;;;;;;;;;7.80;99.90;;;;;;5041965;28;20051;-84
2021/12/17 01:02:48;;;;;;;2.90;2.13;;;7.80;99.90;;;;;;5080680;28;19916;-84
2021/12/17 01:05:18;;;;;;;4.03;1.85;;;7.80;99.90;;;;;;5069461;28;20493;-84
2021/12/17 01:07:48;;;;;;;2.75;1.75;;;7.70;99.90;;;;;;5089726;28;20047;-84
2021/12/17 01:10:40;;;;;;;2.03;1.83;;;7.70;99.90;;;;;;5065732;28;20044;-83
2021/12/17 01:13:07;;;;;;;2.65;2.00;;;7.70;99.90;;;;;;5077072;28;20074;-84
2021/12/17 01:15:35;;;;;;;4.97;2.55;;;7.60;99.90;;;;;;5079702;28;20032;-84
2021/12/17 01:18:07;;;;;;;4.30;2.40;;;7.50;99.90;;;;;;5073045;28;20468;-85
2021/12/17 01:23:30;;;;;;;5.22;1.73;;;7.50;99.90;;;;;;5076207;28;20048;-83
2021/12/17 01:36:43;;;;;;;4.28;1.90;;;7.50;99.90;;;;;;5079822;28;20071;-84
2021/12/17 01:44:25;;;;;;;3.83;2.28;;;7.50;99.90;;;;;;5081655;28;20408;-83
2021/12/17 01:46:52;;;;;;;2.75;1.58;;;7.50;99.90;;;;;;5086295;28;20048;-83
2021/12/17 02:00:07;;;;;;;1.60;1.50;;;7.60;99.90;;;;;;5090385;28;20056;-84
2021/12/17 02:02:42;;;;;;;2.13;1.50;;;7.60;99.90;;;;;;5085524;28;20122;-84
2021/12/17 02:05:10;;;;;;;2.15;1.55;;;7.50;99.90;;;;;;5086318;28;20048;-84
2021/12/17 02:07:36;;;;;;;1.05;0.95;;;7.60;99.90;;;;;;5082218;28;20094;-84
2021/12/17 02:29:15;;;;;;;2.15;1.73;;;7.50;99.90;;;;;;5089594;28;20493;-83
2021/12/17 02:31:39;;;;;;;1.80;1.70;;;7.50;99.90;;;;;;5088171;28;20093;-83
2021/12/17 02:34:23;;;;;;;2.03;1.02;;;7.50;99.90;;;;;;5082083;28;20041;-84
2021/12/17 02:36:50;;;;;;;1.65;1.25;;;7.50;99.90;;;;;;5075220;28;20044;-84
2021/12/17 02:47:10;;;;;;;1.95;1.17;;;7.40;99.90;;;;;;5093891;28;20066;-83
2021/12/17 02:49:41;;;;;;;2.05;1.65;;;7.40;99.90;;;;;;5090803;28;20036;-84
2021/12/17 02:52:07;;;;;;;1.40;1.25;;;7.30;99.90;;;;;;5086650;28;20044;-84
2021/12/17 02:54:35;;;;;;;2.08;1.48;;;7.30;99.90;;;;;;5071846;28;20044;-83
2021/12/17 02:57:02;;;;;;;2.88;1.70;;;7.40;99.90;;;;;;5085557;28;20045;-84
2021/12/17 02:59:28;;;;;;;1.63;1.38;;;7.40;99.90;;;;;;5078207;28;20038;-83
2021/12/17 03:01:55;;;;;;;1.98;1.80;;;7.40;99.90;;;;;;5090642;28;20120;-84
2021/12/17 03:04:23;;;;;;;4.35;1.73;;;7.40;99.90;;;;;;5086802;28;20553;-83
2021/12/17 03:06:48;;;;;;;2.20;1.20;;;7.40;99.90;;;;;;5078130;28;20036;-84
2021/12/17 03:09:16;;;;;;;1.75;1.60;;;7.40;99.90;;;;;;5069101;28;21611;-83
2021/12/17 03:11:42;;;;;;;2.13;1.60;;;7.50;99.90;;;;;;5073999;28;20567;-84
2021/12/17 03:14:08;;;;;;;1.88;1.67;;;7.50;99.90;;;;;;5097724;28;20040;-83
2021/12/17 03:16:54;;;;;;;3.00;2.08;;;7.50;99.90;;;;;;5085862;28;20048;-82
2021/12/17 03:24:35;;;;;;;1.92;1.75;;;7.90;99.90;;;;;;5080622;28;20043;-84
2021/12/17 03:27:04;;;;;;;1.90;1.60;;;7.60;99.90;;;;;;5071866;28;20119;-84
2021/12/17 03:29:30;;;;;;;2.00;1.80;;;7.60;99.90;;;;;;5075851;28;20607;-85
2021/12/17 03:31:58;;;;;;;4.32;2.63;;;7.60;99.90;;;;;;5092445;28;20119;-84
2021/12/17 03:34:24;;;;;;;1.85;1.70;;;7.70;99.90;;;;;;5092506;28;20056;-84
2021/12/17 03:36:57;;;;;;;2.20;1.70;;;7.70;99.90;;;;;;5068845;28;20456;-84
2021/12/17 03:39:25;;;;;;;2.20;1.35;;;7.70;99.90;;;;;;5084049;28;20413;-83
2021/12/17 03:41:52;;;;;;;1.67;1.40;;;7.70;99.90;;;;;;5064670;28;20139;-84
2021/12/17 03:44:20;;;;;;;2.20;1.98;;;7.70;99.90;;;;;;5082760;28;20444;-83
2021/12/17 03:46:48;;;;;;;2.55;1.63;;;7.70;99.90;;;;;;5090075;28;20350;-84
2021/12/17 03:49:15;;;;;;;4.05;1.48;;;7.70;99.90;;;;;;5084245;28;20492;-83
2021/12/17 03:54:39;;;;;;;3.70;1.85;;;7.90;99.90;;;;;;5057418;28;20036;-83
2021/12/17 03:57:09;;;;;;;1.80;1.58;;;7.70;99.90;;;;;;5091404;28;20038;-84
2021/12/17 03:59:35;;;;;;;6.32;1.60;;;7.80;99.90;;;;;;5071321;28;20121;-83
2021/12/17 04:02:02;;;;;;;;;;;7.80;99.90;;;;;;5071009;28;20442;-84
2021/12/17 04:04:29;;;;;;;1.38;1.10;;;7.70;99.90;;;;;;5086285;28;19916;-83
2021/12/17 04:06:55;;;;;;;4.03;1.88;;;7.80;99.90;;;;;;5092389;28;20077;-83
2021/12/17 04:09:22;;;;;;;1.58;0.90;;;7.70;99.90;;;;;;5088054;28;20036;-84
2021/12/17 04:11:48;;;;;;;5.10;1.60;;;7.80;99.90;;;;;;5080894;28;20044;-83
2021/12/17 04:14:14;;;;;;;1.52;1.42;;;7.70;99.90;;;;;;5090072;28;20046;-84
2021/12/17 04:16:40;;;;;;;1.52;1.40;;;7.70;99.90;;;;;;5085152;28;20036;-83
2021/12/17 04:19:06;;;;;;;1.52;1.35;;;7.70;99.90;;;;;;5074818;28;20051;-84
2021/12/17 04:21:32;;;;;;;2.03;1.67;;;7.80;99.90;;;;;;5092011;28;20443;-83
2021/12/17 04:23:57;;;;;;;1.73;1.60;;;7.70;99.90;;;;;;5085644;28;20039;-83
2021/12/17 04:26:25;;;;;;;3.88;1.50;;;7.70;99.90;;;;;;5084351;28;20169;-83
2021/12/17 04:28:52;;;;;;;1.85;1.48;;;7.70;99.90;;;;;;5090250;28;20054;-83
2021/12/17 04:31:24;;;;;;;1.88;1.40;;;7.70;99.90;;;;;;5084763;28;20067;-83
2021/12/17 04:33:50;;;;;;;2.55;2.05;;;7.70;99.90;;;;;;5091458;28;20047;-83
2021/12/17 04:36:22;;;;;;;5.95;1.67;;;7.80;99.90;;;;;;5085991;28;20057;-84
2021/12/17 04:38:49;;;;;;;2.92;2.22;;;7.80;99.90;;;;;;5088879;28;20478;-82
2021/12/17 04:43:56;;;;;;;1.45;1.25;;;8.00;99.90;;;;;;5079857;28;20590;-84
2021/12/17 04:46:33;;;;;;;1.83;1.55;;;7.80;99.90;;;;;;5091448;28;20072;-83
2021/12/17 04:59:47;;;;;;;2.65;2.28;;;7.70;99.90;;;;;;5086275;28;20442;-84
2021/12/17 05:02:16;;;;;;;5.32;3.08;;;7.70;99.90;;;;;;5077135;28;20139;-84
2021/12/17 05:04:42;;;;;;;6.40;2.83;;;7.60;99.90;;;;;;5085690;28;20079;-83
2021/12/17 05:07:11;;;;;;;2.47;2.25;;;7.70;99.90;;;;;;5078172;28;20079;-84
2021/12/17 05:09:50;;;;;;;4.43;2.08;;;7.70;99.90;;;;;;5086748;28;20076;-83
2021/12/17 05:18:30;;;;;;;4.30;2.83;;;7.70;99.90;;;;;;5084914;28;20044;-83
2021/12/17 05:20:49;;;;;;;3.88;2.13;;;7.60;99.90;;;;;;5067141;28;20643;-84
2021/12/17 05:23:16;;;;;;;6.13;2.42;;;7.70;99.90;;;;;;5083469;28;20592;-84
2021/12/17 05:25:42;;;;;;;5.03;1.70;;;7.70;99.90;;;;;;5089093;28;20085;-84
2021/12/17 05:28:08;;;;;;;4.32;3.17;;;7.40;99.90;;;;;;5052074;28;20036;-84
2021/12/17 05:30:35;;;;;;;2.53;1.42;;;7.70;99.90;;;;;;5084899;28;20044;-85
2021/12/17 05:33:01;;;;;;;7.53;2.90;;;7.70;99.90;;;;;;5078728;28;20040;-83
2021/12/17 05:35:27;;;;;;;;;;;7.60;99.90;;;;;;5073076;28;20557;-83
2021/12/17 05:37:54;;;;;;;4.03;3.33;;;7.70;99.90;;;;;;5090992;28;19959;-84
2021/12/17 05:40:20;;;;;;;5.00;2.33;;;7.90;99.90;;;;;;5068593;28;20059;-83
2021/12/17 05:42:50;;;;;;;6.32;5.05;;;7.70;99.90;;;;;;5063010;28;20032;-84
2021/12/17 05:45:33;;;;;;;3.67;3.15;;;7.70;99.90;;;;;;5072923;28;20047;-83
2021/12/17 05:48:04;;;;;;;6.68;4.20;;;7.70;99.90;;;;;;5076248;28;20066;-85
2021/12/17 05:50:31;;;;;;;6.32;2.33;;;7.80;99.90;;;;;;5088048;28;20557;-85
2021/12/17 05:52:56;;;;;;;4.22;2.13;;;7.70;99.90;;;;;;5075071;28;20182;-83
2021/12/17 05:55:22;;;;;;;4.50;2.78;;;7.70;99.90;;;;;;5086851;28;20160;-84
2021/12/17 05:57:48;;;;;;;3.53;2.78;;;7.70;99.90;;;;;;5079512;28;20032;-84
2021/12/17 06:00:14;;;;;;;3.50;2.42;;;8.10;99.90;;;;;;5085603;28;20405;-84
2021/12/17 06:02:40;;;;;;;3.95;2.53;;;7.70;99.90;;;;;;5082002;28;20039;-85
2021/12/17 06:05:06;;;;;;;5.43;3.75;;;7.70;99.90;;;;;;5088905;28;20043;-84
2021/12/17 06:07:32;;;;;;;7.35;3.45;;;7.70;99.90;;;;;;5087720;28;20177;-84
2021/12/17 06:10:03;;;;;;;5.97;3.38;;;7.80;99.90;;;;;;5060262;28;20557;-84
2021/12/17 06:12:29;;;;;;;7.20;3.60;;;7.70;99.90;;;;;;5057046;28;20040;-83
2021/12/17 06:14:55;;;;;;;5.88;3.28;;;7.70;99.90;;;;;;5090433;28;20050;-83
2021/12/17 06:17:20;;;;;;;6.07;3.33;;;7.70;99.90;;;;;;5085788;28;20044;-85
2021/12/17 06:19:46;;;;;;;4.63;2.92;;;7.60;99.90;;;;;;5070179;28;20465;-84
2021/12/17 06:22:14;;;;;;;6.20;2.70;;;7.70;99.90;;;;;;5077602;28;20052;-84
2021/12/17 06:24:44;;;;;;;5.75;4.60;;;7.60;99.90;;;;;;5084427;28;20078;-84
2021/12/17 06:27:13;;;;;;;4.22;2.63;;;7.60;99.90;;;;;;5085573;28;20405;-84
2021/12/17 06:29:39;;;;;;;3.67;2.42;;;7.60;99.90;;;;;;5084146;28;20040;-84
2021/12/17 06:32:05;;;;;;;4.70;3.33;;;7.60;99.90;;;;;;5083213;28;20036;-84
2021/12/17 06:34:31;;;;;;;4.13;2.55;;;7.60;99.90;;;;;;5076938;28;20079;-84
2021/12/17 06:36:57;;;;;;;3.55;2.78;;;7.50;99.90;;;;;;5066069;28;20052;-84
2021/12/17 06:39:24;;;;;;;1.65;1.55;;;7.50;99.90;;;;;;5089162;28;20055;-84
2021/12/17 06:41:50;;;;;;;6.45;2.03;;;7.50;99.90;;;;;;5086067;28;20086;-83
2021/12/17 06:44:21;;;;;;;4.07;3.70;;;7.40;99.90;;;;;;5087515;28;20048;-85
2021/12/17 06:55:27;;;;;;;5.03;2.78;;;7.50;99.90;;;;;;5089837;28;20050;-84
2021/12/17 07:10:40;;;;;;;6.30;3.47;;;7.60;99.90;;;;;;5072944;28;20056;-84
2021/12/17 07:39:35;;;;;;;9.63;2.40;;;7.70;99.90;;;;;;5093715;28;20051;-84
2021/12/17 07:42:02;;;;;;;6.65;3.97;;;7.80;99.90;;;;;;5074051;28;20139;-84
2021/12/17 07:44:28;;;;;;;7.28;4.35;;;7.80;99.90;;;;;;5090209;28;20063;-85
2021/12/17 07:46:54;;;;;;;4.00;1.85;;;7.80;99.90;;;;;;5086622;28;20048;-85
2021/12/17 07:49:19;;;;;;;5.10;3.10;;;7.70;99.90;;;;;;5076158;28;20440;-85
2021/12/17 07:51:45;;;;;;;3.55;2.75;;;7.90;99.90;;;;;;5075919;28;20602;-84
2021/12/17 07:54:11;;;;;;;7.85;3.47;;;7.80;99.90;;;;;;5057105;28;20044;-79
2021/12/17 07:56:40;;;;;;;3.70;3.33;;;7.80;99.90;;;;;;5084605;28;20073;-81
2021/12/17 07:59:11;;;;;;;11.82;3.15;;;7.80;99.90;;;;;;5081467;28;20052;-80
2021/12/17 08:01:37;;;;;;;6.75;3.22;;;7.80;99.90;;;;;;5081208;28;20135;-79
2021/12/17 08:04:05;;;;;;;3.45;2.67;;;7.80;99.90;;;;;;5095973;28;20041;-82
2021/12/17 08:06:31;;;;;;;3.80;2.10;;;7.80;99.90;;;;;;5094352;28;20047;-80
2021/12/17 08:08:57;;;;;;;;;;;7.80;99.90;;;;;;5090613;28;20044;-85
2021/12/17 08:11:22;;;;;;;4.53;2.97;;;7.80;99.90;;;;;;5069613;28;19939;-80
2021/12/17 08:13:54;;;;;;;3.08;2.78;;;7.90;99.90;;;;;;5067289;28;20067;-82
2021/12/17 08:31:32;;;;;;;7.75;3.45;;;7.90;99.90;;;;;;5086732;28;20079;-82
2021/12/17 08:33:58;;;;;;;9.93;2.67;;;7.90;99.90;;;;;;5068742;28;20114;-82
2021/12/17 08:36:25;;;;;;;6.03;3.88;;;7.90;99.90;;;;;;5078272;28;20106;-82
2021/12/17 08:38:51;;;;;;;3.63;2.80;;;7.90;99.90;;;;;;5072738;28;20735;-82
2021/12/17 08:41:19;;;;;;;4.53;3.50;;;8.00;99.90;;;;;;5078846;28;20063;-83
2021/12/17 08:43:45;;;;;;;6.55;3.15;;;8.00;99.90;;;;;;5079830;28;20038;-83
2021/12/17 08:46:11;;;;;;;8.85;4.13;;;8.00;99.90;;;;;;5057276;28;20039;-83
2021/12/17 08:48:37;;;;;;;6.13;2.85;;;8.00;99.90;;;;;;5077846;28;20040;-82
2021/12/17 08:51:06;;;;;;;7.93;3.35;;;8.00;99.90;;;;;;5073167;28;20097;-79
2021/12/17 08:53:33;;;;;;;8.43;2.92;;;8.00;99.90;;;;;;5071443;28;20040;-81
2021/12/17 08:55:58;;;;;;;6.60;3.78;;;8.10;99.90;;;;;;5079540;28;20056;-82
2021/12/17 08:58:24;;;;;;;7.32;3.83;;;8.10;99.90;;;;;;5056804;28;20140;-87
2021/12/17 09:00:50;;;;;;;3.55;2.15;;;8.10;99.90;;;;;;5088073;28;20044;-80
2021/12/17 09:03:16;;;;;;;6.22;3.90;;;8.20;99.90;;;;;;5059105;28;20478;-81
2021/12/17 09:05:44;;;;;;;4.63;3.33;;;8.20;99.90;;;;;;5080176;28;20048;-81
2021/12/17 09:08:11;;;;;;;9.80;2.53;;;8.20;99.90;;;;;;5083238;28;20036;-81
2021/12/17 09:10:37;;;;;;;6.32;2.95;;;8.20;99.90;;;;;;5078422;28;20059;-81
2021/12/17 09:13:03;;;;;;;;;;;8.30;99.90;;;;;;5087408;28;20662;-81
2021/12/17 09:15:29;;;;;;;6.38;3.22;;;8.30;99.90;;;;;;5079509;28;19916;-82
2021/12/17 09:17:54;;;;;;;5.03;3.08;;;8.30;99.90;;;;;;5083971;28;20047;-81
2021/12/17 09:20:20;;;;;;;5.93;3.35;;;8.30;99.90;;;;;;5055209;28;20051;-81
2021/12/17 09:22:46;;;;;;;9.57;3.25;;;8.40;99.90;;;;;;5072714;28;20044;-82
2021/12/17 09:25:14;;;;;;;6.10;3.60;;;8.40;99.90;;;;;;5083976;28;20045;-81
2021/12/17 09:27:40;;;;;;;4.82;2.60;;;8.40;99.90;;;;;;5054100;28;20607;-81
2021/12/17 09:30:10;;;;;;;13.68;4.28;;;8.40;99.90;;;;;;5061687;28;20135;-81
2021/12/17 09:32:38;;;;;;;2.28;1.90;;;8.40;99.90;;;;;;5082385;28;20131;-81
2021/12/17 09:35:04;;;;;;;8.30;3.92;;;8.40;99.90;;;;;;5074118;28;20063;-81
2021/12/17 09:37:30;;;;;;;3.80;3.13;;;8.50;99.90;;;;;;5079201;28;20383;-80
2021/12/17 09:39:55;;;;;;;7.18;2.53;;;8.50;99.90;;;;;;5073223;28;20055;-81
2021/12/17 09:42:21;;;;;;;4.55;4.05;;;8.50;99.90;;;;;;5078921;28;20052;-80
2021/12/17 09:44:47;;;;;;;5.25;2.72;;;8.50;99.90;;;;;;5068754;28;20093;-81
2021/12/17 09:47:13;;;;;;;4.03;2.55;;;8.50;99.90;;;;;;5058473;28;20046;-81
2021/12/17 09:49:40;;;;;;;4.10;2.97;;;8.60;99.90;;;;;;5085404;28;20155;-81
2021/12/17 09:52:06;;;;;;;8.65;3.28;;;8.60;99.90;;;;;;5074600;28;20051;-81
2021/12/17 09:54:31;;;;;;;5.57;2.90;;;8.60;99.90;;;;;;5102798;28;20036;-82
2021/12/17 09:56:57;;;;;;;5.07;2.80;;;8.60;99.90;;;;;;5077560;28;20051;-81
2021/12/17 09:59:23;;;;;;;2.92;2.58;;;8.60;99.90;;;;;;5067026;28;20037;-81
2021/12/17 10:01:49;;;;;;;4.38;2.55;;;8.60;99.90;;;;;;5092204;28;20094;-81
2021/12/17 10:04:20;;;;;;;4.13;2.88;;;8.70;99.90;;;;;;5062969;28;20453;-81
2021/12/17 10:06:48;;;;;;;2.80;2.03;;;8.70;99.90;;;;;;5075398;28;20039;-81
2021/12/17 10:09:15;;;;;;;4.20;2.33;;;8.70;99.90;;;;;;5059910;28;20053;-81
2021/12/17 10:12:03;;;;;;;3.63;1.85;;;8.70;99.90;;;;;;5079188;28;20062;-81
2021/12/17 10:14:30;;;;;;;1.60;1.35;;;8.70;99.90;;;;;;5081137;28;20044;-81
2021/12/17 10:17:06;;;;;;;;;;;8.70;99.90;;;;;;5066145;28;20119;-80
2021/12/17 10:19:49;;;;;;;6.40;2.30;;;8.70;99.90;;;;;;5085349;28;20029;-81
2021/12/17 10:22:16;;;;;;;2.45;2.17;;;8.80;99.90;;;;;;5084248;28;20127;-81
2021/12/17 10:24:45;;;;;;;5.22;2.90;;;8.80;99.90;;;;;;5062694;28;20047;-81
2021/12/17 10:27:21;;;;;;;2.78;1.90;;;8.80;99.90;;;;;;5084408;28;20052;-82
2021/12/17 10:29:47;;;;;;;4.97;1.83;;;8.80;99.90;;;;;;5066009;28;20078;-81
2021/12/17 10:32:18;;;;;;;7.07;2.92;;;8.80;99.90;;;;;;5069287;28;20404;-81
2021/12/17 10:35:07;;;;;;;2.47;1.85;;;8.90;99.90;;;;;;5082825;28;20040;-81
2021/12/17 10:37:49;;;;;;;2.00;1.67;;;8.90;99.90;;;;;;5079840;28;20380;-81
2021/12/17 10:40:21;;;;;;;2.28;2.00;;;8.90;99.90;;;;;;5086638;28;20041;-80
2021/12/17 10:43:03;;;;;;;2.45;2.17;;;8.90;99.90;;;;;;5078386;28;20044;-81
2021/12/17 10:45:34;;;;;;;3.28;2.38;;;8.90;99.90;;;;;;5093490;28;20450;-80
2021/12/17 10:51:07;;;;;;;2.60;1.88;;;8.90;99.90;;;;;;5088718;28;20385;-81
2021/12/17 10:53:32;;;;;;;3.70;1.77;;;9.00;99.90;;;;;;5082896;28;20055;-81
2021/12/17 10:55:59;;;;;;;3.58;1.90;;;9.00;99.90;;;;;;5064809;28;20044;-81
2021/12/17 10:58:25;;;;;;;1.90;1.42;;;9.10;99.90;;;;;;5079299;28;20122;-81
2021/12/17 11:00:54;;;;;;;;;;;9.10;99.90;;;;;;5078356;28;20044;-80
2021/12/17 11:03:19;;;;;;;3.35;2.47;;;9.10;99.90;;;;;;5061520;28;20325;-81
2021/12/17 11:05:45;;;;;;;4.50;1.98;;;9.10;99.90;;;;;;5090464;28;20130;-81
2021/12/17 11:08:30;;;;;;;2.35;2.08;;;9.20;99.90;;;;;;5073519;28;20132;-80
2021/12/17 11:11:10;;;;;;;3.00;2.03;;;9.20;99.90;;;;;;5080708;28;20076;-81
2021/12/17 11:13:55;;;;;;;7.07;1.75;;;9.20;99.90;;;;;;5095790;28;20039;-81
2021/12/17 11:16:21;;;;;;;1.98;1.40;;;9.20;99.90;;;;;;5079181;28;20032;-81
2021/12/17 11:18:49;;;;;;;7.72;1.55;;;9.20;99.90;;;;;;5091507;28;20115;-81
2021/12/17 11:21:15;;;;;;;3.65;2.03;;;9.20;99.90;;;;;;5067709;28;20040;-81
2021/12/17 11:23:42;;;;;;;1.27;1.17;;;9.20;99.90;;;;;;5079664;28;20114;-81
2021/12/17 11:26:08;;;;;;;2.35;1.83;;;9.20;99.90;;;;;;5075622;28;20564;-81
2021/12/17 11:28:34;;;;;;;;;;;9.20;99.90;;;;;;5084986;28;20485;-80
2021/12/17 11:30:59;;;;;;;2.80;1.45;;;9.20;99.90;;;;;;5078757;28;19927;-81
2021/12/17 11:33:28;;;;;;;3.15;1.52;;;9.20;99.90;;;;;;5096142;28;20032;-81
2021/12/17 11:35:54;;;;;;;1.38;1.27;;;9.20;99.90;;;;;;5069391;28;20063;-81
2021/12/17 11:38:53;;;;;;;2.22;1.40;;;9.30;99.90;;;;;;5053735;28;20166;-80
2021/12/17 11:41:30;;;;;;;3.03;2.00;;;9.20;99.90;;;;;;5076707;28;20051;-81
2021/12/17 11:44:02;;;;;;;1.48;1.02;;;9.20;99.90;;;;;;5082944;28;20036;-81
2021/12/17 11:46:31;;;;;;;0.88;0.88;;;9.20;99.90;;;;;;5076592;28;20385;-81
2021/12/17 11:49:04;;;;;;;1.77;1.50;;;9.20;99.90;;;;;;5067368;28;20044;-80
2021/12/17 11:51:32;;;;;;;1.77;1.63;;;9.10;99.90;;;;;;5091763;28;20070;-81
2021/12/17 11:54:11;;;;;;;2.50;1.73;;;9.20;99.90;;;;;;5075793;28;20040;-81
2021/12/17 11:56:54;;;;;;;2.03;1.10;;;9.20;99.90;;;;;;5078107;28;20043;-81
2021/12/17 11:59:23;;;;;;;1.50;1.25;;;9.10;99.90;;;;;;5084698;28;20051;-81
2021/12/17 12:02:00;;;;;;;2.55;1.58;;;9.10;99.90;;;;;;5083356;28;20100;-81
2021/12/17 12:04:32;;;;;;;2.08;1.40;;;9.20;99.90;;;;;;5078316;28;20072;-81
2021/12/17 12:07:13;;;;;;;2.38;2.17;;;9.20;99.90;;;;;;5095561;28;20044;-81
2021/12/17 12:10:12;;;;;;;2.53;1.85;;;9.10;99.90;;;;;;5087503;28;20066;-80
2021/12/17 12:12:38;;;;;;;2.47;1.50;;;9.20;99.90;;;;;;5080348;28;20036;-81
2021/12/17 12:15:28;;;;;;;2.50;1.30;;;9.20;99.90;;;;;;5075765;28;20081;-81
2021/12/17 12:18:09;;;;;;;1.65;1.42;;;9.20;99.90;;;;;;5083697;28;20044;-81
2021/12/17 12:20:50;;;;;;;2.38;1.23;;;9.10;99.90;;;;;;5081929;28;20052;-81
2021/12/17 12:23:32;;;;;;;1.40;1.30;;;9.10;99.90;;;;;;5074369;28;20411;-80
2021/12/17 12:28:44;;;;;;;2.97;1.77;;;9.20;99.90;;;;;;5093234;28;20075;-81
2021/12/17 12:31:17;;;;;;;4.18;2.17;;;9.20;99.90;;;;;;5081015;28;20032;-81
2021/12/17 12:34:05;;;;;;;2.65;1.77;;;9.10;99.90;;;;;;5079625;28;20041;-81
2021/12/17 12:37:00;;;;;;;2.42;1.90;;;9.30;99.90;;;;;;5088589;28;20052;-80
2021/12/17 12:39:26;;;;;;;11.40;1.75;;;9.30;99.90;;;;;;5085163;28;20453;-81
2021/12/17 12:42:11;;;;;;;4.70;3.28;;;9.40;99.90;;;;;;5092687;28;20093;-81
2021/12/17 12:44:47;;;;;;;3.75;2.72;;;9.30;99.90;;;;;;5089703;28;20066;-81
2021/12/17 12:47:29;;;;;;;4.60;2.55;;;9.30;99.90;;;;;;5081650;28;20055;-81
2021/12/17 12:50:04;;;;;;;3.42;2.63;;;9.30;99.90;;;;;;5060564;28;20116;-81
2021/12/17 12:52:41;;;;;;;3.25;2.38;;;9.30;99.90;;;;;;5093495;28;20044;-81
2021/12/17 12:55:45;;;;;;;3.30;2.35;;;9.30;99.90;;;;;;5086622;28;20558;-82
2021/12/17 12:58:17;;;;;;;2.38;2.05;;;9.40;99.90;;;;;;5074329;28;20036;-81
2021/12/17 13:00:55;;;;;;;1.90;1.77;;;9.40;99.90;;;;;;5071175;28;20051;-81
2021/12/17 13:03:26;;;;;;;2.22;1.70;;;9.30;99.90;;;;;;5055814;28;20033;-82
2021/12/17 13:05:53;;;;;;;3.42;1.75;;;9.30;99.90;;;;;;5059679;28;20398;-81
2021/12/17 13:08:21;;;;;;;2.45;1.83;;;9.30;99.90;;;;;;5078576;28;20048;-81
2021/12/17 13:10:54;;;;;;;2.92;2.05;;;9.30;99.90;;;;;;5043017;28;20055;-80
2021/12/17 13:24:12;;;;;;;1.48;1.27;;;9.30;99.90;;;;;;5092214;28;20054;-81
2021/12/17 13:26:50;;;;;;;1.67;1.15;;;9.40;99.90;;;;;;5083364;28;20378;-80
2021/12/17 13:29:21;;;;;;;1.98;1.73;;;9.30;99.90;;;;;;5086230;28;20170;-82
2021/12/17 13:31:56;;;;;;;2.47;1.58;;;9.30;99.90;;;;;;5070292;28;20039;-81
2021/12/17 13:34:44;;;;;;;2.75;2.22;;;9.30;99.90;;;;;;5091623;28;20119;-81
2021/12/17 13:37:13;;;;;;;2.72;1.75;;;9.30;99.90;;;;;;5078119;28;20323;-81
2021/12/17 13:39:47;;;;;;;1.67;1.58;;;9.40;99.90;;;;;;5092149;28;20094;-81
2021/12/17 13:42:21;;;;;;;2.10;1.50;;;9.30;99.90;;;;;;5059581;28;21024;-82
2021/12/17 13:44:49;;;;;;;3.22;1.98;;;9.40;99.90;;;;;;5073373;28;20041;-82
2021/12/17 13:47:20;;;;;;;3.38;2.03;;;9.30;99.90;;;;;;5089112;28;20036;-81
2021/12/17 13:49:50;;;;;;;2.13;1.52;;;9.40;99.90;;;;;;5074750;28;20040;-81
2021/12/17 13:52:19;;;;;;;3.17;2.75;;;9.30;99.90;;;;;;5091466;28;20474;-81
2021/12/17 13:54:47;;;;;;;7.55;3.38;;;9.40;99.90;;;;;;5076521;28;20063;-81
2021/12/17 13:57:16;;;;;;;5.10;3.63;;;9.30;99.90;;;;;;5052407;28;20040;-82
2021/12/17 13:59:43;;;;;;;3.95;2.80;;;9.40;99.90;;;;;;5072477;28;20043;-81
2021/12/17 14:02:20;;;;;;;3.80;2.53;;;9.40;99.90;;;;;;5074687;28;20048;-81
2021/12/17 14:05:21;;;;;;;3.15;2.15;;;9.40;99.90;;;;;;5070310;28;20386;-82
2021/12/17 14:07:52;;;;;;;2.72;2.17;;;9.40;99.90;;;;;;5074530;28;20457;-82
2021/12/17 14:10:24;;;;;;;3.75;2.22;;;9.40;99.90;;;;;;5055772;28;20527;-81
2021/12/17 14:12:50;;;;;;;5.05;2.42;;;9.40;99.90;;;;;;5069187;28;20036;-82
2021/12/17 14:15:17;;;;;;;;;;;9.30;99.90;;;;;;5073978;28;20745;-82
2021/12/17 14:17:46;;;;;;;5.63;2.40;;;9.30;99.90;;;;;;5088046;28;19931;-82
2021/12/17 14:20:22;;;;;;;3.50;2.00;;;9.30;99.90;;;;;;5091708;28;20048;-82
2021/12/17 14:22:51;;;;;;;3.03;2.03;;;9.30;99.90;;;;;;5076776;28;20044;-81
2021/12/17 14:25:33;;;;;;;3.60;2.53;;;9.30;99.90;;;;;;5084212;28;20056;-82
2021/12/17 14:28:07;;;;;;;2.97;2.35;;;9.30;99.90;;;;;;5080112;28;20051;-82
2021/12/17 14:30:33;;;;;;;3.10;1.95;;;9.30;99.90;;;;;;5085935;28;20045;-82
2021/12/17 14:33:33;;;;;;;3.42;2.63;;;9.20;99.90;;;;;;5065658;28;20447;-82
2021/12/17 14:36:20;;;;;;;7.20;6.35;;;9.20;99.90;;;;;;5036877;28;20047;-82
2021/12/17 14:38:56;;;;;;;3.70;3.30;;;9.20;99.90;;;;;;5079085;28;20048;-82
2021/12/17 14:41:33;;;;;;;5.47;2.78;;;9.00;99.90;;;;;;5076530;28;20289;-82
2021/12/17 14:44:09;;;;;;;7.30;3.58;;;9.20;99.90;;;;;;5065637;28;20039;-82
2021/12/17 14:47:07;;;;;;;11.23;6.27;;;9.10;99.90;;;;;;5072872;28;20558;-81
2021/12/17 15:05:49;;;;;;;4.85;3.33;;;9.10;99.90;;;;;;5076209;28;20052;-81
2021/12/17 15:08:15;;;;;;;11.82;8.32;;;9.10;99.90;;;;;;5081399;28;20048;-82
2021/12/17 15:10:42;;;;;;;5.68;3.47;;;9.20;99.90;;;;;;5091256;28;20076;-82
2021/12/17 15:13:07;;;;;;;2.60;1.90;;;9.10;99.90;;;;;;5070507;28;20041;-81
2021/12/17 15:15:36;;;;;;;2.35;2.00;;;9.10;99.90;;;;;;5072813;28;20046;-82
2021/12/17 15:18:04;;;;;;;4.70;3.15;;;9.10;99.90;;;;;;5065004;28;20461;-82
2021/12/17 15:20:32;;;;;;;3.65;2.40;;;9.10;99.90;;;;;;5087875;28;20042;-82
2021/12/17 15:23:00;;;;;;;4.82;3.00;;;9.10;99.90;;;;;;5094421;28;20044;-81
2021/12/17 15:25:27;;;;;;;2.85;1.75;;;9.00;99.90;;;;;;5091978;28;20113;-82
2021/12/17 15:27:52;;;;;;;4.90;2.72;;;9.00;99.90;;;;;;5073745;28;20283;-82
2021/12/17 15:30:22;;;;;;;1.92;1.77;;;9.00;99.90;;;;;;5076531;28;20131;-82
2021/12/17 15:32:49;;;;;;;7.32;2.67;;;9.00;99.90;;;;;;5088002;28;20044;-82
2021/12/17 15:35:18;;;;;;;3.95;2.40;;;9.00;99.90;;;;;;5094689;28;20047;-81
2021/12/17 15:37:44;;;;;;;4.07;2.47;;;9.00;99.90;;;;;;5081637;28;20081;-81
2021/12/17 15:40:11;;;;;;;4.25;3.08;;;8.90;99.90;;;;;;5103270;28;20046;-81
2021/12/17 15:42:37;;;;;;;3.58;2.50;;;8.90;99.90;;;;;;5067165;28;20101;-81
2021/12/17 15:45:05;;;;;;;9.00;2.90;;;8.90;99.90;;;;;;5079523;28;20048;-82
2021/12/17 15:47:30;;;;;;;5.38;3.17;;;8.90;99.90;;;;;;5097340;28;20043;-82
2021/12/17 15:49:56;;;;;;;2.95;2.65;;;8.80;99.90;;;;;;5068525;28;20036;-83
2021/12/17 15:52:22;;;;;;;3.78;2.75;;;8.80;99.90;;;;;;5058535;28;20116;-81
2021/12/17 15:54:48;;;;;;;4.35;2.55;;;8.80;99.90;;;;;;5072173;28;20040;-81
2021/12/17 15:57:15;;;;;;;4.75;2.88;;;8.70;99.90;;;;;;5065299;28;20123;-82
2021/12/17 15:59:42;;;;;;;5.15;2.65;;;8.70;99.90;;;;;;5091569;28;20047;-81
2021/12/17 16:02:08;;;;;;;5.85;2.72;;;8.70;99.90;;;;;;5075473;28;20054;-81
2021/12/17 16:04:39;;;;;;;9.73;2.22;;;9.00;99.90;;;;;;5076512;28;20044;-81
2021/12/17 16:07:05;;;;;;;4.18;2.50;;;8.70;99.90;;;;;;5094309;28;20125;-81
2021/12/17 16:16:48;;;;;;;3.47;2.20;;;8.60;99.90;;;;;;5086005;28;20485;-82
2021/12/17 16:23:23;;;;;;;2.28;2.10;;;8.50;99.90;;;;;;5090964;28;20537;-81
2021/12/17 16:25:50;;;;;;;2.60;1.88;;;8.40;99.90;;;;;;5064638;28;20135;-81
2021/12/17 16:28:16;;;;;;;3.95;2.30;;;8.30;99.90;;;;;;5076694;28;20047;-80
2021/12/17 16:30:42;;;;;;;2.20;1.95;;;8.40;99.90;;;;;;5072906;28;20468;-80
2021/12/17 16:33:07;;;;;;;5.07;1.67;;;8.30;99.90;;;;;;5077752;28;20062;-81
2021/12/17 16:35:33;;;;;;;5.45;2.58;;;8.30;99.90;;;;;;5081440;28;20123;-79
2021/12/17 16:37:59;;;;;;;1.88;1.52;;;8.30;99.90;;;;;;5069020;28;20138;-82
2021/12/17 16:40:25;;;;;;;4.18;2.33;;;8.20;99.90;;;;;;5063791;28;20046;-80
2021/12/17 16:42:53;;;;;;;3.33;1.92;;;8.60;99.90;;;;;;5086176;28;20036;-81
2021/12/17 16:45:22;;;;;;;4.22;2.10;;;8.20;99.90;;;;;;5081473;28;20036;-81
2021/12/17 16:47:49;;;;;;;2.42;2.03;;;8.20;99.90;;;;;;5078576;28;20401;-81
2021/12/17 16:50:16;;;;;;;2.95;1.00;;;8.20;99.90;;;;;;5086476;28;20044;-81
2021/12/17 16:52:42;;;;;;;1.85;1.15;;;8.20;99.90;;;;;;5064125;28;20174;-81
2021/12/17 16:55:08;;;;;;;;;;;8.20;99.90;;;;;;5087215;28;20192;-81
2021/12/17 16:57:34;;;;;;;2.92;1.65;;;8.20;99.90;;;;;;5088404;28;19915;-81
2021/12/17 17:00:00;;;;;;;0.93;0.93;;;8.10;99.90;;;;;;5060191;28;20032;-81
2021/12/17 17:02:26;;;;;;;1.65;1.23;;;8.10;99.90;;;;;;5071163;28;20041;-82